WetterOnline ( https://www.wetteronline.de )

Wetter aktuell Borna

Aktuelles Wetter: Leipzig-Holzhausen (138m)

6-stündlich | Neueste Meldungen
Ortszeit Temperatur Wetter
Do, 18.04. 14:00 9.4° C leicht bewölkt
Do, 18.04. 8:00 4.6° C bedeckt
Do, 18.04. 2:00 4.0° C bewölkt
Mi, 17.04. 20:00 5.8° C leicht bewölkt
Mi, 17.04. 14:00 8.1° C bewölkt
Mi, 17.04. 8:00 4.8° C leichter Regen
Mi, 17.04. 2:00 5.9° C bewölkt
Di, 16.04. 20:00 6.9° C leicht bewölkt
Ortszeit Temperatur Wetter
Do, 18.04. 15:00 9.9° C bewölkt
Do, 18.04. 14:50 9.9° C bewölkt
Do, 18.04. 14:40 9.5° C bewölkt
Do, 18.04. 14:30 9.1° C wolkig
Do, 18.04. 14:20 9.1° C wolkig
Do, 18.04. 14:10 9.6° C leicht bewölkt
Do, 18.04. 14:00 9.4° C leicht bewölkt
Do, 18.04. 13:30 8.6° C bedeckt
Do, 18.04. 13:00 8.2° C leichter Regen
Do, 18.04. 12:30 8.4° C bewölkt
Do, 18.04. 12:00 7.6° C bewölkt
Ortszeit Relative Feuchte Sichtweite
Do, 18.04. 14:00 46% 55 km
Do, 18.04. 8:00 83% 45 km
Do, 18.04. 2:00 91% 29 km
Mi, 17.04. 20:00 88% 45 km
Mi, 17.04. 14:00 69% 45 km
Mi, 17.04. 8:00 94% 14 km
Mi, 17.04. 2:00 88% 60 km
Di, 16.04. 20:00 79% >70 km
Ortszeit Relative Feuchte Sichtweite
Do, 18.04. 15:00 45% 55 km
Do, 18.04. 14:50 45% -
Do, 18.04. 14:40 49% -
Do, 18.04. 14:30 49% 55 km
Do, 18.04. 14:20 49% -
Do, 18.04. 14:10 45% -
Do, 18.04. 14:00 46% 55 km
Do, 18.04. 13:30 49% 55 km
Do, 18.04. 13:00 48% 40 km
Do, 18.04. 12:30 49% >70 km
Do, 18.04. 12:00 59% 65 km
Ortszeit Niederschlagsmenge Niederschlagsart
Do, 18.04. 14:00 0.1 l/m2 in 6 Std. Regen
Do, 18.04. 8:00 0.0 l/m2 in 12 Std. -
Do, 18.04. 2:00 0.1 l/m2 in 6 Std. -
Mi, 17.04. 20:00 2 l/m2 in 12 Std. Regen
Mi, 17.04. 14:00 0.8 l/m2 in 6 Std. Regen
Mi, 17.04. 8:00 0.2 l/m2 in 12 Std. Regen
Mi, 17.04. 2:00 0.2 l/m2 in 6 Std. Regen
Di, 16.04. 20:00 0.6 l/m2 in 12 Std. Regen
Ortszeit Niederschlagsmenge Niederschlagsart
Do, 18.04. 15:00 0.0 l/m2 in 1 Std. -
Do, 18.04. 14:50 keine Meldung -
Do, 18.04. 14:40 keine Meldung -
Do, 18.04. 14:30 0.0 l/m2 in 30 Min -
Do, 18.04. 14:20 keine Meldung -
Do, 18.04. 14:10 keine Meldung -
Do, 18.04. 14:00 <0.05 l/m2 in 1 Std. Regen
Do, 18.04. 13:30 <0.05 l/m2 in 30 Min Schneeregen
Do, 18.04. 13:00 <0.05 l/m2 in 1 Std. Regen
Do, 18.04. 12:30 <0.05 l/m2 in 30 Min Schneeregen
Do, 18.04. 12:00 <0.05 l/m2 in 1 Std. Regen
Ortszeit Stärke Spitze Richtung
km/h Bft. km/h Grad Sektor
Do, 18.04. 14:00 11 2 22 340° N
Do, 18.04. 8:00 6 1 11 10° N
Do, 18.04. 2:00 4 1 11 230° SW
Mi, 17.04. 20:00 4 1 29 210° SW
Mi, 17.04. 14:00 7 2 22 170° S
Mi, 17.04. 8:00 4 1 14 280° W
Mi, 17.04. 2:00 7 2 18 350° N
Di, 16.04. 20:00 6 1 37 270° W
Ortszeit Stärke Spitze Richtung
km/h Bft. km/h Grad Sektor
Do, 18.04. 15:00 7 2 22 20° N
Do, 18.04. 14:50 7 2 - 20° N
Do, 18.04. 14:40 7 2 - 330° NW
Do, 18.04. 14:30 9 2 22 340° N
Do, 18.04. 14:20 9 2 - 340° N
Do, 18.04. 14:10 9 2 - 360° N
Do, 18.04. 14:00 11 2 22 340° N
Do, 18.04. 13:30 7 2 22 330° NW
Do, 18.04. 13:00 11 2 22 20° N
Do, 18.04. 12:30 9 2 20 350° N
Do, 18.04. 12:00 9 2 19 360° N
Ortszeit Untergrenze Bedeckung Gattung
total tief tief mittel hoch
Do, 18.04. 14:00 1260 m 3/8 3/8 - - -
Do, 18.04. 8:00 1800 m 8/8 8/8 - - -
Do, 18.04. 2:00 2400 m 8/8 7/8 - - -
Mi, 17.04. 20:00 2400 m 2/8 1/8 - - -
Mi, 17.04. 14:00 1290 m 7/8 7/8 - - -
Mi, 17.04. 8:00 240 m 8/8 8/8 - - -
Mi, 17.04. 2:00 480 m 7/8 7/8 - - -
Di, 16.04. 20:00 3000 m 3/8 3/8 - - -
Ortszeit Bedeckungsgrad in Achtel und Wolkenuntergrenze
Do, 18.04. 15:00 2(1380m) 4(1500m) 7(2100m)
Do, 18.04. 14:50 2(1380m) 4(1500m) 7(2100m)
Do, 18.04. 14:40 7
Do, 18.04. 14:30 4(1440m) 6(1800m)
Do, 18.04. 14:20 4(1440m) 6(1800m)
Do, 18.04. 14:10 4
Do, 18.04. 14:00 1(1260m) 3(1800m)
Do, 18.04. 13:30 8(1800m)
Do, 18.04. 13:00 7(1800m)
Do, 18.04. 12:30 1(1170m) 7(1800m)
Do, 18.04. 12:00 5(1080m) 7(1800m)
Ortszeit Luftdruck NN (hPa) Tendenz (hPa in 3 Std.)
Do, 18.04. 14:00 1016 + 0,4
Do, 18.04. 8:00 1014 + 1,9
Do, 18.04. 2:00 1012 + 0,9
Mi, 17.04. 20:00 1009 + 0,5
Mi, 17.04. 14:00 1008 0,0
Mi, 17.04. 8:00 1008 + 1,2
Mi, 17.04. 2:00 1006 + 1,8
Di, 16.04. 20:00 1002 + 0,9
Ortszeit Luftdruck NN (hPa) Tendenz (hPa in 3 Std.)
Do, 18.04. 15:00 1016 + 0,3
Do, 18.04. 14:50 1016 keine Meldung
Do, 18.04. 14:40 1016 keine Meldung
Do, 18.04. 14:30 1016 + 0,3
Do, 18.04. 14:20 1016 keine Meldung
Do, 18.04. 14:10 1016 keine Meldung
Do, 18.04. 14:00 1016 + 0,4
Do, 18.04. 13:30 1017 + 0,7
Do, 18.04. 13:00 1016 + 0,9
Do, 18.04. 12:30 1016 + 1,2
Do, 18.04. 12:00 1016 + 1,4
Ortszeit Schneehöhe (cm)
Do, 18.04. 14:00 0
Do, 18.04. 8:00 0
Do, 18.04. 2:00 0
Mi, 17.04. 20:00 0
Mi, 17.04. 14:00 0
Mi, 17.04. 8:00 0
Mi, 17.04. 2:00 0
Di, 16.04. 20:00 0
Ortszeit Schneehöhe (cm)
Do, 18.04. 15:00 0
Do, 18.04. 14:50 0
Do, 18.04. 14:40 -
Do, 18.04. 14:30 0
Do, 18.04. 14:20 0
Do, 18.04. 14:10 -
Do, 18.04. 14:00 0
Do, 18.04. 13:30 0
Do, 18.04. 13:00 0
Do, 18.04. 12:30 0
Do, 18.04. 12:00 0
Link zu dieser Seite / Seite empfehlen

Das Wetter in ...